createdAt,value
2017-10-22T00:01:05.427Z,11.50
2017-10-22T00:03:36.276Z,12.97
2017-10-22T00:06:07.156Z,11.60
2017-10-22T00:08:37.995Z,11.70
2017-10-22T00:11:08.843Z,11.50
2017-10-22T00:13:39.680Z,11.30
2017-10-22T00:16:10.547Z,12.00
2017-10-22T00:18:41.387Z,12.33
2017-10-22T00:21:12.240Z,10.53
2017-10-22T00:23:43.080Z,11.70
2017-10-22T00:26:13.935Z,11.30
2017-10-22T00:28:44.783Z,11.87
2017-10-22T00:31:15.644Z,10.47
2017-10-22T00:33:46.492Z,10.90
2017-10-22T00:36:17.348Z,10.63
2017-10-22T00:38:48.192Z,9.90
2017-10-22T00:41:19.056Z,9.20
2017-10-22T00:43:49.895Z,11.43
2017-10-22T00:46:20.752Z,9.57
2017-10-22T00:48:51.617Z,8.67
2017-10-22T00:51:22.473Z,9.40
2017-10-22T00:53:53.315Z,9.60
2017-10-22T00:56:24.257Z,8.80
2017-10-22T00:58:55.084Z,9.80
2017-10-22T01:01:25.892Z,9.70
2017-10-22T01:03:56.731Z,9.17
2017-10-22T01:06:27.580Z,9.40
2017-10-22T01:08:58.443Z,9.27
2017-10-22T01:11:29.294Z,8.90
2017-10-22T01:14:00.151Z,8.83
2017-10-22T01:16:30.999Z,8.77
2017-10-22T01:19:01.867Z,8.23
2017-10-22T01:21:32.725Z,8.53
2017-10-22T01:24:03.593Z,8.87
2017-10-22T01:26:34.507Z,8.07
2017-10-22T01:29:05.342Z,8.87
2017-10-22T01:31:36.287Z,8.07
2017-10-22T01:34:07.121Z,8.73
2017-10-22T01:36:37.983Z,8.30
2017-10-22T01:39:08.824Z,8.43
2017-10-22T01:41:39.684Z,7.50
2017-10-22T01:44:10.540Z,7.93
2017-10-22T01:46:41.403Z,7.43
2017-10-22T01:49:12.263Z,7.87
2017-10-22T01:51:43.105Z,7.57
2017-10-22T01:54:13.947Z,8.00
2017-10-22T01:56:44.828Z,7.10
2017-10-22T01:59:15.664Z,6.53
2017-10-22T02:01:46.522Z,7.50
2017-10-22T02:04:17.383Z,7.23
2017-10-22T02:06:48.220Z,7.30
2017-10-22T02:09:19.152Z,6.63
2017-10-22T02:11:49.982Z,6.90
2017-10-22T02:14:20.810Z,6.90
2017-10-22T02:16:51.643Z,7.50
2017-10-22T02:19:22.516Z,6.93
2017-10-22T02:21:53.349Z,7.20
2017-10-22T02:24:24.197Z,6.87
2017-10-22T02:26:55.048Z,5.80
2017-10-22T02:29:25.888Z,6.63
2017-10-22T02:31:56.755Z,6.73
2017-10-22T02:34:27.580Z,5.90
2017-10-22T02:36:58.434Z,6.20
2017-10-22T02:39:29.270Z,6.50
2017-10-22T02:42:00.107Z,5.93
2017-10-22T02:44:30.937Z,5.87
2017-10-22T02:47:01.764Z,5.83
2017-10-22T02:49:32.600Z,5.20
2017-10-22T02:52:03.433Z,5.50
2017-10-22T02:54:34.282Z,6.23
2017-10-22T02:57:05.123Z,5.30
2017-10-22T02:59:35.993Z,5.93
2017-10-22T03:02:06.844Z,5.73
2017-10-22T03:04:37.705Z,5.83
2017-10-22T03:07:08.568Z,6.37
2017-10-22T03:09:39.463Z,5.60
2017-10-22T03:12:10.307Z,5.27
2017-10-22T03:14:41.151Z,5.20
2017-10-22T03:17:12.026Z,5.20
2017-10-22T03:19:42.860Z,5.50
2017-10-22T03:22:13.719Z,4.97
2017-10-22T03:24:44.576Z,5.40
2017-10-22T03:27:15.516Z,5.00
2017-10-22T03:29:46.464Z,5.33
2017-10-22T03:32:17.287Z,4.83
2017-10-22T03:34:48.103Z,5.23
2017-10-22T03:37:18.912Z,4.90
2017-10-22T03:39:49.749Z,4.67
2017-10-22T03:42:20.598Z,5.20
2017-10-22T03:44:51.454Z,4.60
2017-10-22T03:47:22.290Z,5.20
2017-10-22T03:49:53.123Z,5.00
2017-10-22T03:52:24.004Z,4.67
2017-10-22T03:54:54.862Z,4.77
2017-10-22T03:57:25.711Z,4.77
2017-10-22T03:59:56.555Z,4.03
2017-10-22T04:02:27.399Z,4.33
2017-10-22T04:04:58.231Z,4.20
2017-10-22T04:07:29.072Z,4.30
2017-10-22T04:09:59.905Z,4.10
2017-10-22T04:12:30.756Z,4.60
2017-10-22T04:15:01.596Z,4.40
2017-10-22T04:17:32.436Z,4.30
2017-10-22T04:20:03.296Z,4.30
2017-10-22T04:22:34.532Z,3.90
2017-10-22T04:25:05.360Z,4.28
2017-10-22T04:27:36.187Z,3.87
2017-10-22T04:30:07.020Z,3.87
2017-10-22T04:32:37.847Z,4.10
2017-10-22T04:35:08.667Z,3.77
2017-10-22T04:37:39.493Z,3.90
2017-10-22T04:40:10.327Z,4.30
2017-10-22T04:42:41.193Z,3.03
2017-10-22T04:45:12.035Z,3.80
2017-10-22T04:47:42.872Z,4.17
2017-10-22T04:50:13.714Z,3.60
2017-10-22T04:52:44.566Z,3.87
2017-10-22T04:55:15.408Z,3.97
2017-10-22T04:57:46.260Z,3.50
2017-10-22T05:00:17.083Z,4.00
2017-10-22T05:02:47.923Z,4.33
2017-10-22T05:05:18.760Z,3.80
2017-10-22T05:07:49.603Z,3.87
2017-10-22T05:10:20.454Z,3.20
2017-10-22T05:12:51.323Z,3.90
2017-10-22T05:15:22.168Z,3.73
2017-10-22T05:17:53.022Z,3.40
2017-10-22T05:20:23.859Z,3.00
2017-10-22T05:22:54.692Z,3.80
2017-10-22T05:25:25.564Z,3.20
2017-10-22T05:27:56.395Z,2.40
2017-10-22T05:30:27.216Z,2.30
2017-10-22T05:32:58.024Z,2.30
2017-10-22T05:35:28.875Z,2.53
2017-10-22T05:37:59.711Z,2.57
2017-10-22T05:40:30.573Z,2.60
2017-10-22T05:43:01.436Z,2.40
2017-10-22T05:45:32.296Z,2.10
2017-10-22T05:48:03.143Z,3.00
2017-10-22T05:50:34.347Z,2.30
2017-10-22T05:53:05.174Z,1.90
2017-10-22T05:55:35.996Z,2.80
2017-10-22T05:58:06.803Z,2.70
2017-10-22T06:00:37.642Z,2.33
2017-10-22T06:03:08.492Z,3.07
2017-10-22T06:05:39.356Z,2.63
2017-10-22T06:08:10.192Z,2.20
2017-10-22T06:10:41.030Z,2.20
2017-10-22T06:13:11.872Z,2.10
2017-10-22T06:15:42.722Z,2.23
2017-10-22T06:18:13.571Z,2.37
2017-10-22T06:20:44.425Z,2.33
2017-10-22T06:23:15.256Z,2.13
2017-10-22T06:25:46.098Z,1.50
2017-10-22T06:28:16.944Z,2.57
2017-10-22T06:30:47.809Z,2.17
2017-10-22T06:33:18.652Z,1.93
2017-10-22T06:35:49.488Z,2.00
2017-10-22T06:38:20.326Z,2.20
2017-10-22T06:40:51.169Z,2.30
2017-10-22T06:43:22.016Z,2.10
2017-10-22T06:45:52.846Z,2.07
2017-10-22T06:48:23.714Z,2.20
2017-10-22T06:50:54.559Z,2.43
2017-10-22T06:53:25.408Z,2.07
2017-10-22T06:55:56.243Z,2.00
2017-10-22T06:58:27.112Z,2.50
2017-10-22T07:00:57.979Z,2.20
2017-10-22T07:03:28.824Z,1.70
2017-10-22T07:05:59.711Z,1.97
2017-10-22T07:08:30.576Z,2.10
2017-10-22T07:11:02.772Z,2.17
2017-10-22T07:13:33.596Z,2.70
2017-10-22T07:16:04.435Z,1.93
2017-10-22T07:18:35.279Z,2.17
2017-10-22T07:21:06.152Z,1.80
2017-10-22T07:23:37.008Z,2.03
2017-10-22T07:26:07.876Z,1.80
2017-10-22T07:28:38.708Z,1.97
2017-10-22T07:31:09.556Z,2.07
2017-10-22T07:33:40.400Z,2.30
2017-10-22T07:36:11.250Z,2.47
2017-10-22T07:38:42.073Z,1.97
2017-10-22T07:41:12.924Z,2.07
2017-10-22T07:43:43.787Z,1.90
2017-10-22T07:46:14.723Z,1.97
2017-10-22T07:48:45.548Z,2.17
2017-10-22T07:51:16.375Z,2.67
2017-10-22T07:53:47.208Z,2.73
2017-10-22T07:56:18.064Z,2.00
2017-10-22T07:58:48.924Z,1.97
2017-10-22T08:01:19.772Z,2.10
2017-10-22T08:03:50.633Z,1.93
2017-10-22T08:06:21.489Z,2.40
2017-10-22T08:08:52.353Z,2.13
2017-10-22T08:11:23.230Z,2.70
2017-10-22T08:13:54.096Z,2.70
2017-10-22T08:16:24.955Z,3.00
2017-10-22T08:18:55.792Z,4.00
2017-10-22T08:21:26.653Z,4.20
2017-10-22T08:23:57.503Z,4.20
2017-10-22T08:26:28.355Z,3.73
2017-10-22T08:28:59.237Z,4.80
2017-10-22T08:31:30.081Z,4.03
2017-10-22T08:34:00.934Z,4.17
2017-10-22T08:36:31.772Z,4.07
2017-10-22T08:39:02.623Z,3.20
2017-10-22T08:41:33.452Z,3.10
2017-10-22T08:44:04.287Z,4.30
2017-10-22T08:46:35.161Z,4.27
2017-10-22T08:49:06.008Z,33.50
2017-10-22T08:51:36.913Z,45.67
2017-10-22T08:54:07.748Z,30.73
2017-10-22T08:56:38.617Z,28.77
2017-10-22T08:59:09.476Z,24.33
2017-10-22T09:01:40.324Z,25.83
2017-10-22T09:04:11.188Z,23.57
2017-10-22T09:06:42.044Z,24.20
2017-10-22T09:09:12.962Z,28.40
2017-10-22T09:11:43.804Z,27.40
2017-10-22T09:14:14.732Z,29.03
2017-10-22T09:16:45.671Z,31.80
2017-10-22T09:19:16.509Z,33.30
2017-10-22T09:21:47.403Z,33.53
2017-10-22T09:24:18.275Z,38.87
2017-10-22T09:26:49.176Z,40.10
2017-10-22T09:29:20.003Z,41.73
2017-10-22T09:31:50.863Z,45.13
2017-10-22T09:34:21.728Z,49.03
2017-10-22T09:36:52.615Z,52.57
2017-10-22T09:39:23.452Z,58.77
2017-10-22T09:41:54.316Z,58.00
2017-10-22T09:44:25.187Z,66.50
2017-10-22T09:46:56.073Z,67.20
2017-10-22T09:49:26.917Z,71.30
2017-10-22T09:51:57.783Z,66.40
2017-10-22T09:54:28.759Z,69.40
2017-10-22T09:56:59.604Z,66.33
2017-10-22T09:59:30.488Z,65.43
2017-10-22T10:02:01.441Z,60.23
2017-10-22T10:04:32.305Z,56.57
2017-10-22T10:07:03.188Z,53.03
2017-10-22T10:09:34.035Z,51.30
2017-10-22T10:12:04.875Z,50.00
2017-10-22T10:14:35.741Z,50.87
2017-10-22T10:17:06.604Z,49.90
2017-10-22T10:19:37.473Z,47.20
2017-10-22T10:22:08.329Z,47.03
2017-10-22T10:24:39.196Z,46.17
2017-10-22T10:27:10.065Z,50.03
2017-10-22T10:29:40.904Z,45.93
2017-10-22T10:32:11.769Z,48.20
2017-10-22T10:34:42.599Z,44.07
2017-10-22T10:37:13.500Z,44.37
2017-10-22T10:39:44.345Z,41.10
2017-10-22T10:42:15.200Z,34.07
2017-10-22T10:44:46.044Z,33.67
2017-10-22T10:47:16.914Z,32.03
2017-10-22T10:49:47.742Z,30.60
2017-10-22T10:52:18.596Z,25.13
2017-10-22T10:54:49.464Z,25.27
2017-10-22T10:57:20.341Z,27.87
2017-10-22T10:59:51.218Z,28.57
2017-10-22T11:02:22.084Z,28.10
2017-10-22T11:04:52.952Z,27.90
2017-10-22T11:07:23.812Z,26.27
2017-10-22T11:09:54.671Z,27.27
2017-10-22T11:12:25.597Z,27.50
2017-10-22T11:14:56.435Z,26.53
2017-10-22T11:17:27.402Z,28.30
2017-10-22T11:19:58.231Z,26.87
2017-10-22T11:22:29.064Z,28.63
2017-10-22T11:24:59.937Z,26.43
2017-10-22T11:27:30.806Z,26.00
2017-10-22T11:30:01.668Z,24.87
2017-10-22T11:32:32.619Z,23.90
2017-10-22T11:35:03.560Z,24.23
2017-10-22T11:37:34.395Z,26.07
2017-10-22T11:40:05.231Z,25.60
2017-10-22T11:42:36.594Z,23.73
2017-10-22T11:45:07.444Z,24.92
2017-10-22T11:47:38.308Z,23.20
2017-10-22T11:50:09.147Z,23.30
2017-10-22T11:52:40.035Z,23.60
2017-10-22T11:55:10.877Z,23.40
2017-10-22T11:57:41.755Z,22.90
2017-10-22T12:00:12.631Z,19.53
2017-10-22T12:02:43.471Z,19.97
2017-10-22T12:05:14.344Z,18.33
2017-10-22T12:07:45.186Z,18.70
2017-10-22T12:10:16.055Z,16.73
2017-10-22T12:12:46.931Z,14.47
2017-10-22T12:15:17.782Z,13.60
2017-10-22T12:17:48.646Z,14.73
2017-10-22T12:20:19.535Z,14.50
2017-10-22T12:22:50.393Z,15.50
2017-10-22T12:25:21.272Z,14.40
2017-10-22T12:27:52.115Z,13.37
2017-10-22T12:30:23.018Z,14.97
2017-10-22T12:32:53.894Z,13.13
2017-10-22T12:35:24.752Z,14.30
2017-10-22T12:37:55.615Z,13.20
2017-10-22T12:40:26.455Z,12.07
2017-10-22T12:42:57.345Z,13.40
2017-10-22T12:45:28.200Z,13.60
2017-10-22T12:47:59.062Z,12.90
2017-10-22T12:50:29.928Z,13.23
2017-10-22T12:53:00.801Z,11.57
2017-10-22T12:55:31.664Z,12.50
2017-10-22T12:58:02.514Z,11.90
2017-10-22T13:00:33.363Z,12.47
2017-10-22T13:03:04.240Z,12.37
2017-10-22T13:05:35.101Z,12.40
2017-10-22T13:08:05.977Z,12.63
2017-10-22T13:10:36.826Z,12.87
2017-10-22T13:13:07.684Z,11.77
2017-10-22T13:15:38.587Z,11.53
2017-10-22T13:18:09.437Z,11.53
2017-10-22T13:20:40.315Z,10.00
2017-10-22T13:23:11.190Z,9.30
2017-10-22T13:25:42.139Z,10.60
2017-10-22T13:28:12.979Z,11.80
2017-10-22T13:30:43.843Z,11.00
2017-10-22T13:33:14.698Z,10.90
2017-10-22T13:35:45.562Z,10.13
2017-10-22T13:38:16.416Z,10.43
2017-10-22T13:40:47.298Z,10.83
2017-10-22T13:43:18.155Z,10.50
2017-10-22T13:45:49.023Z,20.17
2017-10-22T13:48:19.903Z,26.80
2017-10-22T13:50:50.749Z,23.33
2017-10-22T13:53:21.628Z,23.27
2017-10-22T13:55:52.517Z,20.57
2017-10-22T13:58:23.380Z,21.90
2017-10-22T14:00:54.262Z,20.53
2017-10-22T14:03:25.120Z,19.10
2017-10-22T14:05:55.971Z,18.13
2017-10-22T14:08:26.856Z,23.20
2017-10-22T14:10:57.720Z,27.87
2017-10-22T14:13:28.660Z,30.33
2017-10-22T14:15:59.521Z,28.77
2017-10-22T14:18:30.389Z,28.77
2017-10-22T14:21:01.239Z,27.47
2017-10-22T14:23:32.082Z,25.50
2017-10-22T14:26:02.959Z,22.83
2017-10-22T14:28:33.823Z,22.63
2017-10-22T14:31:04.692Z,29.63
2017-10-22T14:33:35.577Z,45.50
2017-10-22T14:36:06.586Z,58.13
2017-10-22T14:38:37.547Z,63.35
2017-10-22T14:41:08.418Z,61.57
2017-10-22T14:43:39.284Z,59.77
2017-10-22T14:46:10.150Z,60.10
2017-10-22T14:48:41.046Z,60.63
2017-10-22T14:51:11.941Z,58.00
2017-10-22T14:53:42.804Z,57.30
2017-10-22T14:56:13.663Z,58.23
2017-10-22T14:58:44.524Z,58.33
2017-10-22T15:01:15.398Z,53.17
2017-10-22T15:03:46.305Z,53.90
2017-10-22T15:06:17.202Z,54.60
2017-10-22T15:08:48.063Z,56.23
2017-10-22T15:11:18.932Z,52.30
2017-10-22T15:13:49.810Z,51.00
2017-10-22T15:16:20.668Z,51.73
2017-10-22T15:18:51.562Z,53.00
2017-10-22T15:21:22.417Z,52.57
2017-10-22T15:23:53.296Z,48.23
2017-10-22T15:26:24.144Z,53.63
2017-10-22T15:28:55.056Z,53.00
2017-10-22T15:31:25.911Z,50.60
2017-10-22T15:33:56.801Z,51.53
2017-10-22T15:36:27.677Z,49.77
2017-10-22T15:38:58.532Z,47.70
2017-10-22T15:41:29.442Z,46.10
2017-10-22T15:44:00.288Z,44.43
2017-10-22T15:46:31.188Z,38.43
2017-10-22T15:49:02.056Z,32.47
2017-10-22T15:51:32.972Z,33.93
2017-10-22T15:54:03.836Z,32.30
2017-10-22T15:56:34.715Z,33.60
2017-10-22T15:59:05.563Z,38.00
2017-10-22T16:01:36.432Z,34.27
2017-10-22T16:04:07.435Z,42.73
2017-10-22T16:06:38.299Z,40.30
2017-10-22T16:09:09.179Z,38.67
2017-10-22T16:11:40.039Z,37.30
2017-10-22T16:14:10.903Z,38.60
2017-10-22T16:16:41.784Z,42.37
2017-10-22T16:19:12.640Z,39.70
2017-10-22T16:21:43.530Z,37.07
2017-10-22T16:24:14.426Z,37.67
2017-10-22T16:26:45.278Z,39.37
2017-10-22T16:29:16.157Z,37.80
2017-10-22T16:31:47.013Z,36.03
2017-10-22T16:34:17.904Z,36.50
2017-10-22T16:36:48.762Z,36.50
2017-10-22T16:39:19.647Z,35.90
2017-10-22T16:41:50.497Z,35.00
2017-10-22T16:44:21.373Z,33.80
2017-10-22T16:46:52.233Z,36.10
2017-10-22T16:49:23.110Z,34.30
2017-10-22T16:51:53.965Z,34.40
2017-10-22T16:54:24.860Z,35.60
2017-10-22T16:56:55.734Z,36.77
2017-10-22T16:59:26.653Z,31.80
2017-10-22T17:01:57.512Z,33.53
2017-10-22T17:04:28.388Z,33.63
2017-10-22T17:06:59.328Z,33.50
2017-10-22T17:09:30.198Z,31.93
2017-10-22T17:12:01.169Z,32.13
2017-10-22T17:14:32.040Z,32.17
2017-10-22T17:17:02.891Z,32.90
2017-10-22T17:19:33.762Z,32.97
2017-10-22T17:22:04.630Z,30.93
2017-10-22T17:24:35.500Z,30.70
2017-10-22T17:27:06.367Z,28.90
2017-10-22T17:29:37.232Z,28.03
2017-10-22T17:32:08.112Z,30.00
2017-10-22T17:34:38.996Z,24.67
2017-10-22T17:37:09.832Z,23.37
2017-10-22T17:39:40.713Z,23.67
2017-10-22T17:42:11.555Z,26.10
2017-10-22T17:44:42.460Z,24.30
2017-10-22T17:47:13.409Z,26.57
2017-10-22T17:49:44.309Z,24.80
2017-10-22T17:52:15.170Z,25.07
2017-10-22T17:54:46.061Z,24.60
2017-10-22T17:57:16.930Z,25.73
2017-10-22T17:59:47.788Z,24.23
2017-10-22T18:02:18.669Z,23.53
2017-10-22T18:04:49.528Z,22.73
2017-10-22T18:07:20.393Z,22.07
2017-10-22T18:09:51.273Z,23.37
2017-10-22T18:12:22.171Z,22.73
2017-10-22T18:14:53.056Z,21.40
2017-10-22T18:17:23.917Z,22.70
2017-10-22T18:19:54.796Z,21.70
2017-10-22T18:22:25.654Z,22.33
2017-10-22T18:24:56.573Z,20.73
2017-10-22T18:27:27.453Z,21.47
2017-10-22T18:29:58.449Z,21.23
2017-10-22T18:32:29.303Z,20.73
2017-10-22T18:35:00.862Z,21.70
2017-10-22T18:37:31.742Z,19.70
2017-10-22T18:40:02.603Z,20.73
2017-10-22T18:42:33.622Z,18.83
2017-10-22T18:45:04.513Z,19.58
2017-10-22T18:47:35.374Z,19.53
2017-10-22T18:50:09.431Z,18.67
2017-10-22T18:52:40.271Z,18.42
2017-10-22T18:55:11.213Z,18.10
2017-10-22T18:57:42.064Z,18.90
2017-10-22T19:00:12.950Z,18.60
2017-10-22T19:02:43.839Z,18.40
2017-10-22T19:05:14.747Z,17.83
2017-10-22T19:07:45.627Z,16.10
2017-10-22T19:10:16.534Z,16.77
2017-10-22T19:12:48.838Z,17.00
2017-10-22T19:15:19.708Z,14.95
2017-10-22T19:17:50.600Z,16.50
2017-10-22T19:20:21.464Z,15.23
2017-10-22T19:22:52.365Z,16.07
2017-10-22T19:25:23.341Z,17.40
2017-10-22T19:27:54.361Z,14.93
2017-10-22T19:30:25.229Z,16.35
2017-10-22T19:32:56.119Z,17.30
2017-10-22T19:35:26.990Z,15.80
2017-10-22T19:37:58.116Z,16.53
2017-10-22T19:40:28.992Z,15.30
2017-10-22T19:42:59.885Z,17.00
2017-10-22T19:45:30.768Z,16.43
2017-10-22T19:48:01.634Z,14.40
2017-10-22T19:50:32.489Z,16.00
2017-10-22T19:53:03.413Z,15.87
2017-10-22T19:55:34.390Z,14.90
2017-10-22T19:58:05.266Z,14.00
2017-10-22T20:00:36.166Z,14.23
2017-10-22T20:03:07.043Z,14.53
2017-10-22T20:05:37.924Z,15.90
2017-10-22T20:08:08.807Z,16.03
2017-10-22T20:10:39.678Z,13.40
2017-10-22T20:13:10.875Z,13.33
2017-10-22T20:15:41.731Z,14.05
2017-10-22T20:18:12.649Z,14.30
2017-10-22T20:20:43.542Z,13.03
2017-10-22T20:23:14.415Z,14.67
2017-10-22T20:25:45.276Z,13.60
2017-10-22T20:28:16.180Z,14.10
2017-10-22T20:30:47.046Z,12.43
2017-10-22T20:33:17.931Z,13.70
2017-10-22T20:35:48.852Z,13.77
2017-10-22T20:38:19.694Z,13.00
2017-10-22T20:40:50.558Z,13.20
2017-10-22T20:43:21.431Z,13.67
2017-10-22T20:45:52.295Z,12.67
2017-10-22T20:48:23.184Z,12.27
2017-10-22T20:50:54.042Z,12.90
2017-10-22T20:53:24.955Z,12.33
2017-10-22T20:55:55.862Z,13.20
2017-10-22T20:58:26.709Z,12.37
2017-10-22T21:00:57.581Z,13.77
2017-10-22T21:03:28.443Z,12.40
2017-10-22T21:05:59.321Z,12.03
2017-10-22T21:08:30.156Z,14.13
2017-10-22T21:11:01.041Z,11.03
2017-10-22T21:13:31.891Z,12.63
2017-10-22T21:16:02.797Z,13.00
2017-10-22T21:18:33.668Z,11.57
2017-10-22T21:21:04.528Z,12.97
2017-10-22T21:23:35.367Z,12.50
2017-10-22T21:26:06.245Z,13.10
2017-10-22T21:28:37.127Z,12.53
2017-10-22T21:31:07.996Z,11.80
2017-10-22T21:33:38.868Z,11.40
2017-10-22T21:36:09.706Z,12.97
2017-10-22T21:38:40.577Z,10.57
2017-10-22T21:41:11.432Z,12.80
2017-10-22T21:43:42.305Z,11.50
2017-10-22T21:46:13.159Z,11.93
2017-10-22T21:48:44.027Z,11.60
2017-10-22T21:51:14.884Z,11.60
2017-10-22T21:53:45.769Z,10.90
2017-10-22T21:56:16.604Z,9.73
2017-10-22T21:58:47.439Z,11.80
2017-10-22T22:01:18.316Z,10.13
2017-10-22T22:03:49.439Z,10.23
2017-10-22T22:06:20.296Z,10.32
2017-10-22T22:08:51.151Z,10.93
2017-10-22T22:11:22.015Z,10.80
2017-10-22T22:13:52.992Z,10.40
2017-10-22T22:16:23.827Z,9.93
2017-10-22T22:18:54.676Z,10.53
2017-10-22T22:21:25.545Z,10.10
2017-10-22T22:23:56.375Z,9.80
2017-10-22T22:26:27.219Z,10.10
2017-10-22T22:28:58.047Z,9.20
2017-10-22T22:31:28.900Z,9.30
2017-10-22T22:33:59.752Z,9.97
2017-10-22T22:36:30.627Z,9.57
2017-10-22T22:39:01.481Z,9.97
2017-10-22T22:41:32.350Z,9.63
2017-10-22T22:44:03.208Z,10.13
2017-10-22T22:46:34.068Z,9.47
2017-10-22T22:49:04.908Z,9.47
2017-10-22T22:51:35.764Z,9.97
2017-10-22T22:54:06.636Z,9.77
2017-10-22T22:56:37.506Z,8.63
2017-10-22T22:59:08.346Z,9.40
2017-10-22T23:01:39.245Z,8.43
2017-10-22T23:04:10.059Z,8.97
2017-10-22T23:06:40.927Z,9.80
2017-10-22T23:09:11.764Z,8.70
2017-10-22T23:11:42.671Z,9.10
2017-10-22T23:14:13.504Z,7.87
2017-10-22T23:16:44.374Z,8.80
2017-10-22T23:19:15.215Z,8.60
2017-10-22T23:21:46.056Z,8.43
2017-10-22T23:24:16.912Z,8.40
2017-10-22T23:26:47.791Z,8.23
2017-10-22T23:29:18.645Z,7.40
2017-10-22T23:31:49.478Z,8.43
2017-10-22T23:34:20.319Z,7.23
2017-10-22T23:36:51.156Z,8.63
2017-10-22T23:39:22.069Z,8.57
2017-10-22T23:41:52.891Z,7.53
2017-10-22T23:44:23.716Z,8.00
2017-10-22T23:46:54.543Z,7.73
2017-10-22T23:49:25.370Z,7.30
2017-10-22T23:51:56.201Z,7.40
2017-10-22T23:54:27.036Z,7.90
2017-10-22T23:56:57.931Z,6.93
2017-10-22T23:59:28.787Z,7.70
